sensor_id;sensor_type;location;lat;lon;timestamp;P1;durP1;ratioP1;P2;durP2;ratioP2
5898;SDS011;2975;50.956;6.962;2022-10-31T00:02:04;12.77;;;7.47;;
5898;SDS011;2975;50.956;6.962;2022-10-31T00:04:30;18.73;;;7.07;;
5898;SDS011;2975;50.956;6.962;2022-10-31T00:06:56;12.50;;;7.43;;
5898;SDS011;2975;50.956;6.962;2022-10-31T00:09:21;12.53;;;6.63;;
5898;SDS011;2975;50.956;6.962;2022-10-31T00:11:47;12.93;;;6.63;;
5898;SDS011;2975;50.956;6.962;2022-10-31T00:14:13;17.03;;;6.90;;
5898;SDS011;2975;50.956;6.962;2022-10-31T00:16:38;13.33;;;7.13;;
5898;SDS011;2975;50.956;6.962;2022-10-31T00:19:06;12.10;;;7.10;;
5898;SDS011;2975;50.956;6.962;2022-10-31T00:21:32;9.90;;;6.47;;
5898;SDS011;2975;50.956;6.962;2022-10-31T00:23:58;11.13;;;6.67;;
5898;SDS011;2975;50.956;6.962;2022-10-31T00:26:26;14.07;;;6.80;;
5898;SDS011;2975;50.956;6.962;2022-10-31T00:28:52;10.50;;;6.37;;
5898;SDS011;2975;50.956;6.962;2022-10-31T00:31:18;20.30;;;7.53;;
5898;SDS011;2975;50.956;6.962;2022-10-31T00:33:43;11.70;;;6.77;;
5898;SDS011;2975;50.956;6.962;2022-10-31T00:36:16;21.70;;;6.90;;
5898;SDS011;2975;50.956;6.962;2022-10-31T00:38:43;15.47;;;6.73;;
5898;SDS011;2975;50.956;6.962;2022-10-31T00:41:10;12.67;;;6.97;;
5898;SDS011;2975;50.956;6.962;2022-10-31T00:43:37;13.50;;;6.90;;
5898;SDS011;2975;50.956;6.962;2022-10-31T00:46:02;19.77;;;6.50;;
5898;SDS011;2975;50.956;6.962;2022-10-31T00:48:28;8.90;;;5.70;;
5898;SDS011;2975;50.956;6.962;2022-10-31T00:50:54;13.57;;;7.27;;
5898;SDS011;2975;50.956;6.962;2022-10-31T00:53:20;10.00;;;5.93;;
5898;SDS011;2975;50.956;6.962;2022-10-31T00:55:46;12.23;;;6.77;;
5898;SDS011;2975;50.956;6.962;2022-10-31T00:58:12;16.73;;;6.67;;
5898;SDS011;2975;50.956;6.962;2022-10-31T01:00:38;14.00;;;6.33;;
5898;SDS011;2975;50.956;6.962;2022-10-31T01:03:03;12.57;;;6.53;;
5898;SDS011;2975;50.956;6.962;2022-10-31T01:05:29;14.30;;;6.40;;
5898;SDS011;2975;50.956;6.962;2022-10-31T01:07:55;10.63;;;7.03;;
5898;SDS011;2975;50.956;6.962;2022-10-31T01:10:20;16.70;;;7.03;;
5898;SDS011;2975;50.956;6.962;2022-10-31T01:12:47;11.57;;;6.63;;
5898;SDS011;2975;50.956;6.962;2022-10-31T01:15:14;12.23;;;6.30;;
5898;SDS011;2975;50.956;6.962;2022-10-31T01:17:42;11.87;;;6.50;;
5898;SDS011;2975;50.956;6.962;2022-10-31T01:20:08;11.63;;;6.13;;
5898;SDS011;2975;50.956;6.962;2022-10-31T01:22:35;13.33;;;6.30;;
5898;SDS011;2975;50.956;6.962;2022-10-31T01:25:00;11.60;;;6.20;;
5898;SDS011;2975;50.956;6.962;2022-10-31T01:27:27;13.50;;;6.33;;
5898;SDS011;2975;50.956;6.962;2022-10-31T01:29:52;11.30;;;6.37;;
5898;SDS011;2975;50.956;6.962;2022-10-31T01:32:18;11.77;;;6.23;;
5898;SDS011;2975;50.956;6.962;2022-10-31T01:34:43;12.17;;;6.70;;
5898;SDS011;2975;50.956;6.962;2022-10-31T01:37:09;9.80;;;5.80;;
5898;SDS011;2975;50.956;6.962;2022-10-31T01:39:35;14.87;;;6.70;;
5898;SDS011;2975;50.956;6.962;2022-10-31T01:42:00;14.60;;;6.47;;
5898;SDS011;2975;50.956;6.962;2022-10-31T01:49:34;9.80;;;6.40;;
5898;SDS011;2975;50.956;6.962;2022-10-31T01:52:52;11.60;;;5.90;;
5898;SDS011;2975;50.956;6.962;2022-10-31T01:55:02;10.37;;;6.17;;
5898;SDS011;2975;50.956;6.962;2022-10-31T01:57:39;11.80;;;5.60;;
5898;SDS011;2975;50.956;6.962;2022-10-31T02:00:08;9.50;;;5.40;;
5898;SDS011;2975;50.956;6.962;2022-10-31T02:02:34;11.37;;;6.80;;
5898;SDS011;2975;50.956;6.962;2022-10-31T02:05:02;13.20;;;6.57;;
5898;SDS011;2975;50.956;6.962;2022-10-31T02:07:32;11.87;;;6.40;;
5898;SDS011;2975;50.956;6.962;2022-10-31T02:10:02;13.30;;;5.97;;
5898;SDS011;2975;50.956;6.962;2022-10-31T02:12:29;15.63;;;6.40;;
5898;SDS011;2975;50.956;6.962;2022-10-31T02:14:57;13.57;;;6.27;;
5898;SDS011;2975;50.956;6.962;2022-10-31T02:17:24;19.10;;;7.17;;
5898;SDS011;2975;50.956;6.962;2022-10-31T02:25:46;13.00;;;6.03;;
5898;SDS011;2975;50.956;6.962;2022-10-31T02:34:31;15.67;;;6.20;;
5898;SDS011;2975;50.956;6.962;2022-10-31T02:36:56;15.67;;;6.93;;
5898;SDS011;2975;50.956;6.962;2022-10-31T02:39:44;14.90;;;6.50;;
5898;SDS011;2975;50.956;6.962;2022-10-31T02:42:17;16.13;;;6.70;;
5898;SDS011;2975;50.956;6.962;2022-10-31T02:44:52;14.83;;;6.23;;
5898;SDS011;2975;50.956;6.962;2022-10-31T02:47:26;10.97;;;6.17;;
5898;SDS011;2975;50.956;6.962;2022-10-31T02:49:58;15.60;;;6.07;;
5898;SDS011;2975;50.956;6.962;2022-10-31T02:52:28;11.80;;;6.33;;
5898;SDS011;2975;50.956;6.962;2022-10-31T02:54:56;12.80;;;6.73;;
5898;SDS011;2975;50.956;6.962;2022-10-31T02:57:26;12.43;;;5.90;;
5898;SDS011;2975;50.956;6.962;2022-10-31T02:59:57;10.77;;;6.63;;
5898;SDS011;2975;50.956;6.962;2022-10-31T03:07:57;13.43;;;5.67;;
5898;SDS011;2975;50.956;6.962;2022-10-31T03:13:04;12.37;;;6.00;;
5898;SDS011;2975;50.956;6.962;2022-10-31T03:15:51;11.83;;;5.27;;
5898;SDS011;2975;50.956;6.962;2022-10-31T03:18:27;13.13;;;6.00;;
5898;SDS011;2975;50.956;6.962;2022-10-31T03:21:01;9.77;;;5.60;;
5898;SDS011;2975;50.956;6.962;2022-10-31T03:23:33;8.50;;;5.63;;
5898;SDS011;2975;50.956;6.962;2022-10-31T03:26:01;13.20;;;5.90;;
5898;SDS011;2975;50.956;6.962;2022-10-31T03:28:33;12.37;;;6.53;;
5898;SDS011;2975;50.956;6.962;2022-10-31T03:31:03;9.40;;;5.30;;
5898;SDS011;2975;50.956;6.962;2022-10-31T03:33:31;11.97;;;6.07;;
5898;SDS011;2975;50.956;6.962;2022-10-31T03:36:00;12.37;;;5.73;;
5898;SDS011;2975;50.956;6.962;2022-10-31T03:38:29;11.87;;;6.33;;
5898;SDS011;2975;50.956;6.962;2022-10-31T03:40:58;12.00;;;5.93;;
5898;SDS011;2975;50.956;6.962;2022-10-31T03:43:28;11.67;;;5.57;;
5898;SDS011;2975;50.956;6.962;2022-10-31T03:45:57;9.43;;;5.77;;
5898;SDS011;2975;50.956;6.962;2022-10-31T03:48:23;11.83;;;5.53;;
5898;SDS011;2975;50.956;6.962;2022-10-31T03:59:02;15.30;;;5.87;;
5898;SDS011;2975;50.956;6.962;2022-10-31T04:01:32;8.47;;;4.97;;
5898;SDS011;2975;50.956;6.962;2022-10-31T04:04:03;13.70;;;6.30;;
5898;SDS011;2975;50.956;6.962;2022-10-31T04:06:34;13.70;;;6.67;;
5898;SDS011;2975;50.956;6.962;2022-10-31T04:09:02;10.10;;;5.43;;
5898;SDS011;2975;50.956;6.962;2022-10-31T04:11:31;12.37;;;5.20;;
5898;SDS011;2975;50.956;6.962;2022-10-31T04:14:01;9.80;;;5.13;;
5898;SDS011;2975;50.956;6.962;2022-10-31T04:16:29;10.57;;;5.73;;
5898;SDS011;2975;50.956;6.962;2022-10-31T04:18:55;10.70;;;5.03;;
5898;SDS011;2975;50.956;6.962;2022-10-31T04:21:26;11.23;;;6.20;;
5898;SDS011;2975;50.956;6.962;2022-10-31T04:23:53;15.53;;;5.97;;
5898;SDS011;2975;50.956;6.962;2022-10-31T04:26:19;10.00;;;5.87;;
5898;SDS011;2975;50.956;6.962;2022-10-31T04:28:45;14.27;;;6.53;;
5898;SDS011;2975;50.956;6.962;2022-10-31T04:31:11;10.90;;;5.60;;
5898;SDS011;2975;50.956;6.962;2022-10-31T04:33:39;14.50;;;5.60;;
5898;SDS011;2975;50.956;6.962;2022-10-31T04:36:05;14.17;;;6.20;;
5898;SDS011;2975;50.956;6.962;2022-10-31T04:38:31;12.17;;;5.67;;
5898;SDS011;2975;50.956;6.962;2022-10-31T04:40:56;15.07;;;5.23;;
5898;SDS011;2975;50.956;6.962;2022-10-31T04:43:22;14.80;;;5.77;;
5898;SDS011;2975;50.956;6.962;2022-10-31T04:45:48;10.90;;;5.27;;
5898;SDS011;2975;50.956;6.962;2022-10-31T04:48:13;11.87;;;5.40;;
5898;SDS011;2975;50.956;6.962;2022-10-31T04:50:39;14.83;;;5.60;;
5898;SDS011;2975;50.956;6.962;2022-10-31T04:53:05;11.47;;;5.83;;
5898;SDS011;2975;50.956;6.962;2022-10-31T04:55:30;9.67;;;5.50;;
5898;SDS011;2975;50.956;6.962;2022-10-31T04:57:56;16.33;;;6.40;;
5898;SDS011;2975;50.956;6.962;2022-10-31T05:00:22;11.27;;;5.47;;
5898;SDS011;2975;50.956;6.962;2022-10-31T05:05:15;11.73;;;5.83;;
5898;SDS011;2975;50.956;6.962;2022-10-31T05:07:43;10.33;;;6.10;;
5898;SDS011;2975;50.956;6.962;2022-10-31T05:10:10;11.43;;;5.83;;
5898;SDS011;2975;50.956;6.962;2022-10-31T05:12:37;10.73;;;5.80;;
5898;SDS011;2975;50.956;6.962;2022-10-31T05:15:09;11.00;;;6.00;;
5898;SDS011;2975;50.956;6.962;2022-10-31T05:17:35;11.60;;;5.63;;
5898;SDS011;2975;50.956;6.962;2022-10-31T05:20:01;11.67;;;5.50;;
5898;SDS011;2975;50.956;6.962;2022-10-31T05:22:26;11.57;;;5.67;;
5898;SDS011;2975;50.956;6.962;2022-10-31T05:24:52;15.37;;;5.63;;
5898;SDS011;2975;50.956;6.962;2022-10-31T05:27:17;11.47;;;5.83;;
5898;SDS011;2975;50.956;6.962;2022-10-31T05:29:43;13.10;;;6.57;;
5898;SDS011;2975;50.956;6.962;2022-10-31T05:32:08;14.90;;;5.90;;
5898;SDS011;2975;50.956;6.962;2022-10-31T05:34:34;8.67;;;5.10;;
5898;SDS011;2975;50.956;6.962;2022-10-31T05:37:00;11.33;;;5.80;;
5898;SDS011;2975;50.956;6.962;2022-10-31T05:39:25;11.93;;;5.80;;
5898;SDS011;2975;50.956;6.962;2022-10-31T05:41:51;8.27;;;5.47;;
5898;SDS011;2975;50.956;6.962;2022-10-31T05:44:16;11.60;;;5.37;;
5898;SDS011;2975;50.956;6.962;2022-10-31T05:46:42;14.37;;;5.83;;
5898;SDS011;2975;50.956;6.962;2022-10-31T05:49:07;13.33;;;5.50;;
5898;SDS011;2975;50.956;6.962;2022-10-31T05:51:33;12.90;;;5.50;;
5898;SDS011;2975;50.956;6.962;2022-10-31T05:53:58;9.03;;;5.07;;
5898;SDS011;2975;50.956;6.962;2022-10-31T05:56:24;11.67;;;5.30;;
5898;SDS011;2975;50.956;6.962;2022-10-31T05:58:50;8.70;;;6.10;;
5898;SDS011;2975;50.956;6.962;2022-10-31T06:01:15;12.37;;;6.57;;
5898;SDS011;2975;50.956;6.962;2022-10-31T06:03:41;11.93;;;5.70;;
5898;SDS011;2975;50.956;6.962;2022-10-31T06:06:06;9.87;;;5.43;;
5898;SDS011;2975;50.956;6.962;2022-10-31T06:08:32;8.70;;;5.83;;
5898;SDS011;2975;50.956;6.962;2022-10-31T06:10:57;13.87;;;6.23;;
5898;SDS011;2975;50.956;6.962;2022-10-31T06:13:23;13.43;;;6.20;;
5898;SDS011;2975;50.956;6.962;2022-10-31T06:15:49;12.33;;;6.10;;
5898;SDS011;2975;50.956;6.962;2022-10-31T06:18:14;12.03;;;5.93;;
5898;SDS011;2975;50.956;6.962;2022-10-31T06:20:40;11.23;;;5.80;;
5898;SDS011;2975;50.956;6.962;2022-10-31T06:23:05;14.67;;;6.60;;
5898;SDS011;2975;50.956;6.962;2022-10-31T06:25:31;14.67;;;6.07;;
5898;SDS011;2975;50.956;6.962;2022-10-31T06:27:58;14.30;;;6.17;;
5898;SDS011;2975;50.956;6.962;2022-10-31T06:30:24;12.60;;;6.00;;
5898;SDS011;2975;50.956;6.962;2022-10-31T06:32:49;11.00;;;6.27;;
5898;SDS011;2975;50.956;6.962;2022-10-31T06:35:15;13.27;;;6.00;;
5898;SDS011;2975;50.956;6.962;2022-10-31T06:37:41;11.20;;;5.97;;
5898;SDS011;2975;50.956;6.962;2022-10-31T06:40:06;10.30;;;6.17;;
5898;SDS011;2975;50.956;6.962;2022-10-31T06:42:33;13.87;;;5.93;;
5898;SDS011;2975;50.956;6.962;2022-10-31T06:44:58;10.87;;;5.97;;
5898;SDS011;2975;50.956;6.962;2022-10-31T06:47:24;15.87;;;6.23;;
5898;SDS011;2975;50.956;6.962;2022-10-31T06:49:49;10.53;;;6.47;;
5898;SDS011;2975;50.956;6.962;2022-10-31T06:52:15;10.83;;;6.10;;
5898;SDS011;2975;50.956;6.962;2022-10-31T06:54:41;11.97;;;5.80;;
5898;SDS011;2975;50.956;6.962;2022-10-31T06:57:06;13.53;;;5.87;;
5898;SDS011;2975;50.956;6.962;2022-10-31T06:59:32;16.40;;;6.30;;
5898;SDS011;2975;50.956;6.962;2022-10-31T07:01:58;11.23;;;5.33;;
5898;SDS011;2975;50.956;6.962;2022-10-31T07:04:23;11.33;;;5.50;;
5898;SDS011;2975;50.956;6.962;2022-10-31T07:06:52;11.60;;;5.40;;
5898;SDS011;2975;50.956;6.962;2022-10-31T07:09:18;12.17;;;6.33;;
5898;SDS011;2975;50.956;6.962;2022-10-31T07:11:44;9.53;;;5.17;;
5898;SDS011;2975;50.956;6.962;2022-10-31T07:14:09;13.83;;;5.87;;
5898;SDS011;2975;50.956;6.962;2022-10-31T07:16:35;10.87;;;6.10;;
5898;SDS011;2975;50.956;6.962;2022-10-31T07:19:00;10.17;;;5.23;;
5898;SDS011;2975;50.956;6.962;2022-10-31T07:21:26;13.23;;;6.73;;
5898;SDS011;2975;50.956;6.962;2022-10-31T07:23:52;15.73;;;6.77;;
5898;SDS011;2975;50.956;6.962;2022-10-31T07:26:17;12.60;;;6.57;;
5898;SDS011;2975;50.956;6.962;2022-10-31T07:28:43;9.87;;;6.20;;
5898;SDS011;2975;50.956;6.962;2022-10-31T07:31:10;13.90;;;5.80;;
5898;SDS011;2975;50.956;6.962;2022-10-31T07:33:35;11.67;;;5.77;;
5898;SDS011;2975;50.956;6.962;2022-10-31T07:36:01;8.53;;;5.53;;
5898;SDS011;2975;50.956;6.962;2022-10-31T07:38:27;11.90;;;5.60;;
5898;SDS011;2975;50.956;6.962;2022-10-31T07:40:52;21.40;;;6.20;;
5898;SDS011;2975;50.956;6.962;2022-10-31T07:43:18;10.13;;;5.30;;
5898;SDS011;2975;50.956;6.962;2022-10-31T07:45:48;11.93;;;5.90;;
5898;SDS011;2975;50.956;6.962;2022-10-31T07:48:15;10.87;;;6.13;;
5898;SDS011;2975;50.956;6.962;2022-10-31T07:50:46;14.30;;;5.67;;
5898;SDS011;2975;50.956;6.962;2022-10-31T07:53:22;10.17;;;5.20;;
5898;SDS011;2975;50.956;6.962;2022-10-31T07:55:50;15.13;;;5.93;;
5898;SDS011;2975;50.956;6.962;2022-10-31T07:58:16;16.70;;;6.27;;
5898;SDS011;2975;50.956;6.962;2022-10-31T08:00:42;13.20;;;6.20;;
5898;SDS011;2975;50.956;6.962;2022-10-31T08:03:10;12.63;;;6.43;;
5898;SDS011;2975;50.956;6.962;2022-10-31T08:05:38;13.33;;;6.63;;
5898;SDS011;2975;50.956;6.962;2022-10-31T08:08:06;13.50;;;5.70;;
5898;SDS011;2975;50.956;6.962;2022-10-31T08:10:32;17.37;;;6.00;;
5898;SDS011;2975;50.956;6.962;2022-10-31T08:12:59;13.13;;;5.67;;
5898;SDS011;2975;50.956;6.962;2022-10-31T08:15:27;14.87;;;6.67;;
5898;SDS011;2975;50.956;6.962;2022-10-31T08:17:53;18.07;;;5.83;;
5898;SDS011;2975;50.956;6.962;2022-10-31T08:20:19;15.27;;;5.90;;
5898;SDS011;2975;50.956;6.962;2022-10-31T08:22:58;10.30;;;5.60;;
5898;SDS011;2975;50.956;6.962;2022-10-31T08:25:29;14.83;;;6.07;;
5898;SDS011;2975;50.956;6.962;2022-10-31T08:27:55;14.57;;;6.53;;
5898;SDS011;2975;50.956;6.962;2022-10-31T08:30:22;13.37;;;6.33;;
5898;SDS011;2975;50.956;6.962;2022-10-31T08:32:59;15.63;;;5.53;;
5898;SDS011;2975;50.956;6.962;2022-10-31T08:35:28;13.87;;;6.10;;
5898;SDS011;2975;50.956;6.962;2022-10-31T08:37:55;13.13;;;6.00;;
5898;SDS011;2975;50.956;6.962;2022-10-31T08:40:21;10.30;;;5.70;;
5898;SDS011;2975;50.956;6.962;2022-10-31T08:42:54;9.03;;;5.07;;
5898;SDS011;2975;50.956;6.962;2022-10-31T08:45:31;13.70;;;5.37;;
5898;SDS011;2975;50.956;6.962;2022-10-31T08:47:58;13.10;;;5.23;;
5898;SDS011;2975;50.956;6.962;2022-10-31T08:50:25;11.77;;;5.73;;
5898;SDS011;2975;50.956;6.962;2022-10-31T08:52:52;10.40;;;5.37;;
5898;SDS011;2975;50.956;6.962;2022-10-31T08:55:17;14.73;;;6.43;;
5898;SDS011;2975;50.956;6.962;2022-10-31T08:57:43;10.43;;;5.20;;
5898;SDS011;2975;50.956;6.962;2022-10-31T09:00:09;15.03;;;6.07;;
5898;SDS011;2975;50.956;6.962;2022-10-31T09:02:35;12.07;;;5.17;;
5898;SDS011;2975;50.956;6.962;2022-10-31T09:05:02;12.83;;;6.23;;
5898;SDS011;2975;50.956;6.962;2022-10-31T09:07:27;12.23;;;5.20;;
5898;SDS011;2975;50.956;6.962;2022-10-31T09:09:53;10.27;;;5.90;;
5898;SDS011;2975;50.956;6.962;2022-10-31T09:12:20;10.40;;;5.20;;
5898;SDS011;2975;50.956;6.962;2022-10-31T09:14:46;11.87;;;5.90;;
5898;SDS011;2975;50.956;6.962;2022-10-31T09:17:12;10.90;;;6.20;;
5898;SDS011;2975;50.956;6.962;2022-10-31T09:19:38;12.37;;;6.20;;
5898;SDS011;2975;50.956;6.962;2022-10-31T09:22:03;17.03;;;6.10;;
5898;SDS011;2975;50.956;6.962;2022-10-31T09:24:29;9.20;;;5.37;;
5898;SDS011;2975;50.956;6.962;2022-10-31T09:26:54;12.97;;;5.73;;
5898;SDS011;2975;50.956;6.962;2022-10-31T09:29:20;16.33;;;5.90;;
5898;SDS011;2975;50.956;6.962;2022-10-31T09:31:46;10.97;;;5.97;;
5898;SDS011;2975;50.956;6.962;2022-10-31T09:34:11;8.27;;;5.40;;
5898;SDS011;2975;50.956;6.962;2022-10-31T09:36:37;12.30;;;5.90;;
5898;SDS011;2975;50.956;6.962;2022-10-31T09:39:03;11.63;;;5.70;;
5898;SDS011;2975;50.956;6.962;2022-10-31T09:52:22;14.47;;;5.73;;
5898;SDS011;2975;50.956;6.962;2022-10-31T09:54:54;10.87;;;5.30;;
5898;SDS011;2975;50.956;6.962;2022-10-31T09:57:30;12.00;;;5.47;;
5898;SDS011;2975;50.956;6.962;2022-10-31T09:59:58;12.33;;;5.70;;
5898;SDS011;2975;50.956;6.962;2022-10-31T10:03:11;16.67;;;6.07;;
5898;SDS011;2975;50.956;6.962;2022-10-31T10:05:19;12.93;;;5.63;;
5898;SDS011;2975;50.956;6.962;2022-10-31T10:07:55;15.60;;;5.33;;
5898;SDS011;2975;50.956;6.962;2022-10-31T10:10:47;13.50;;;6.07;;
5898;SDS011;2975;50.956;6.962;2022-10-31T10:24:40;11.40;;;5.93;;
5898;SDS011;2975;50.956;6.962;2022-10-31T10:30:11;12.73;;;6.43;;
5898;SDS011;2975;50.956;6.962;2022-10-31T10:32:47;13.87;;;6.23;;
5898;SDS011;2975;50.956;6.962;2022-10-31T10:35:23;10.77;;;5.63;;
5898;SDS011;2975;50.956;6.962;2022-10-31T10:38:16;14.27;;;5.43;;
5898;SDS011;2975;50.956;6.962;2022-10-31T10:40:40;9.70;;;4.97;;
5898;SDS011;2975;50.956;6.962;2022-10-31T10:43:20;13.07;;;5.33;;
5898;SDS011;2975;50.956;6.962;2022-10-31T10:52:04;13.17;;;4.83;;
5898;SDS011;2975;50.956;6.962;2022-10-31T11:00:21;11.40;;;5.10;;
5898;SDS011;2975;50.956;6.962;2022-10-31T11:03:05;10.13;;;5.00;;
5898;SDS011;2975;50.956;6.962;2022-10-31T11:08:35;11.40;;;4.30;;
5898;SDS011;2975;50.956;6.962;2022-10-31T11:13:42;9.27;;;4.97;;
5898;SDS011;2975;50.956;6.962;2022-10-31T11:16:11;10.13;;;4.40;;
5898;SDS011;2975;50.956;6.962;2022-10-31T11:18:53;8.87;;;4.30;;
5898;SDS011;2975;50.956;6.962;2022-10-31T11:21:28;10.80;;;4.80;;
5898;SDS011;2975;50.956;6.962;2022-10-31T11:24:03;12.10;;;4.93;;
5898;SDS011;2975;50.956;6.962;2022-10-31T11:27:02;9.13;;;4.27;;
5898;SDS011;2975;50.956;6.962;2022-10-31T11:29:36;8.10;;;4.37;;
5898;SDS011;2975;50.956;6.962;2022-10-31T11:32:02;10.77;;;4.93;;
5898;SDS011;2975;50.956;6.962;2022-10-31T11:34:32;10.37;;;4.97;;
5898;SDS011;2975;50.956;6.962;2022-10-31T11:37:11;11.50;;;4.40;;
5898;SDS011;2975;50.956;6.962;2022-10-31T11:39:41;10.60;;;4.93;;
5898;SDS011;2975;50.956;6.962;2022-10-31T11:42:09;6.87;;;4.63;;
5898;SDS011;2975;50.956;6.962;2022-10-31T11:44:36;11.17;;;4.53;;
5898;SDS011;2975;50.956;6.962;2022-10-31T11:47:06;9.53;;;4.63;;
5898;SDS011;2975;50.956;6.962;2022-10-31T11:49:44;10.47;;;5.03;;
5898;SDS011;2975;50.956;6.962;2022-10-31T11:52:18;11.40;;;3.97;;
5898;SDS011;2975;50.956;6.962;2022-10-31T11:57:50;10.43;;;4.50;;
5898;SDS011;2975;50.956;6.962;2022-10-31T12:00:27;12.90;;;4.70;;
5898;SDS011;2975;50.956;6.962;2022-10-31T12:05:37;12.80;;;4.00;;
5898;SDS011;2975;50.956;6.962;2022-10-31T12:08:07;10.77;;;4.47;;
5898;SDS011;2975;50.956;6.962;2022-10-31T12:10:39;9.37;;;5.33;;
5898;SDS011;2975;50.956;6.962;2022-10-31T12:13:33;12.60;;;4.37;;
5898;SDS011;2975;50.956;6.962;2022-10-31T12:21:43;12.93;;;5.03;;
5898;SDS011;2975;50.956;6.962;2022-10-31T12:27:03;10.63;;;3.73;;
5898;SDS011;2975;50.956;6.962;2022-10-31T12:35:46;6.07;;;3.40;;
5898;SDS011;2975;50.956;6.962;2022-10-31T12:46:03;6.20;;;3.20;;
5898;SDS011;2975;50.956;6.962;2022-10-31T12:51:33;10.37;;;4.37;;
5898;SDS011;2975;50.956;6.962;2022-10-31T12:57:35;6.07;;;3.67;;
5898;SDS011;2975;50.956;6.962;2022-10-31T13:00:14;11.23;;;3.90;;
5898;SDS011;2975;50.956;6.962;2022-10-31T13:02:59;10.20;;;4.03;;
5898;SDS011;2975;50.956;6.962;2022-10-31T13:05:46;8.73;;;3.80;;
5898;SDS011;2975;50.956;6.962;2022-10-31T13:08:17;11.03;;;3.23;;
5898;SDS011;2975;50.956;6.962;2022-10-31T13:13:32;15.47;;;4.17;;
5898;SDS011;2975;50.956;6.962;2022-10-31T13:18:40;9.53;;;3.37;;
5898;SDS011;2975;50.956;6.962;2022-10-31T13:21:12;10.40;;;3.50;;
5898;SDS011;2975;50.956;6.962;2022-10-31T13:23:49;15.43;;;4.27;;
5898;SDS011;2975;50.956;6.962;2022-10-31T13:29:27;13.23;;;4.03;;
5898;SDS011;2975;50.956;6.962;2022-10-31T13:32:05;8.23;;;3.40;;
5898;SDS011;2975;50.956;6.962;2022-10-31T13:34:33;11.90;;;3.77;;
5898;SDS011;2975;50.956;6.962;2022-10-31T13:37:05;8.70;;;3.00;;
5898;SDS011;2975;50.956;6.962;2022-10-31T13:40:32;10.33;;;3.20;;
5898;SDS011;2975;50.956;6.962;2022-10-31T13:45:55;9.37;;;4.10;;
5898;SDS011;2975;50.956;6.962;2022-10-31T13:50:56;10.33;;;3.37;;
5898;SDS011;2975;50.956;6.962;2022-10-31T13:56:16;7.80;;;3.67;;
5898;SDS011;2975;50.956;6.962;2022-10-31T13:58:56;9.70;;;3.50;;
5898;SDS011;2975;50.956;6.962;2022-10-31T14:01:22;6.90;;;3.60;;
5898;SDS011;2975;50.956;6.962;2022-10-31T14:03:59;9.13;;;3.27;;
5898;SDS011;2975;50.956;6.962;2022-10-31T14:06:40;10.77;;;3.57;;
5898;SDS011;2975;50.956;6.962;2022-10-31T14:09:21;16.70;;;3.20;;
5898;SDS011;2975;50.956;6.962;2022-10-31T14:12:08;7.37;;;3.17;;
5898;SDS011;2975;50.956;6.962;2022-10-31T14:14:41;10.73;;;4.00;;
5898;SDS011;2975;50.956;6.962;2022-10-31T14:17:23;12.43;;;3.60;;
5898;SDS011;2975;50.956;6.962;2022-10-31T14:22:35;10.73;;;3.63;;
5898;SDS011;2975;50.956;6.962;2022-10-31T14:25:24;11.43;;;3.70;;
5898;SDS011;2975;50.956;6.962;2022-10-31T14:28:22;11.13;;;3.33;;
5898;SDS011;2975;50.956;6.962;2022-10-31T14:30:58;9.37;;;3.43;;
5898;SDS011;2975;50.956;6.962;2022-10-31T14:33:28;9.60;;;3.10;;
5898;SDS011;2975;50.956;6.962;2022-10-31T14:39:17;7.20;;;3.23;;
5898;SDS011;2975;50.956;6.962;2022-10-31T14:42:04;9.83;;;3.87;;
5898;SDS011;2975;50.956;6.962;2022-10-31T14:44:44;5.53;;;3.00;;
5898;SDS011;2975;50.956;6.962;2022-10-31T14:47:56;9.27;;;2.97;;
5898;SDS011;2975;50.956;6.962;2022-10-31T14:50:41;8.60;;;3.23;;
5898;SDS011;2975;50.956;6.962;2022-10-31T14:53:33;5.80;;;3.40;;
5898;SDS011;2975;50.956;6.962;2022-10-31T14:56:05;7.50;;;3.37;;
5898;SDS011;2975;50.956;6.962;2022-10-31T14:58:39;7.70;;;3.97;;
5898;SDS011;2975;50.956;6.962;2022-10-31T15:03:48;8.13;;;3.20;;
5898;SDS011;2975;50.956;6.962;2022-10-31T15:06:15;10.13;;;3.07;;
5898;SDS011;2975;50.956;6.962;2022-10-31T15:11:20;9.57;;;3.10;;
5898;SDS011;2975;50.956;6.962;2022-10-31T15:13:48;9.07;;;3.27;;
5898;SDS011;2975;50.956;6.962;2022-10-31T15:16:22;7.87;;;4.00;;
5898;SDS011;2975;50.956;6.962;2022-10-31T15:19:02;5.50;;;3.10;;
5898;SDS011;2975;50.956;6.962;2022-10-31T15:21:30;8.93;;;3.77;;
5898;SDS011;2975;50.956;6.962;2022-10-31T15:23:58;15.73;;;3.87;;
5898;SDS011;2975;50.956;6.962;2022-10-31T15:26:32;5.63;;;3.13;;
5898;SDS011;2975;50.956;6.962;2022-10-31T15:29:18;10.20;;;3.07;;
5898;SDS011;2975;50.956;6.962;2022-10-31T15:31:58;8.47;;;3.73;;
5898;SDS011;2975;50.956;6.962;2022-10-31T15:34:41;10.43;;;4.10;;
5898;SDS011;2975;50.956;6.962;2022-10-31T15:37:11;10.10;;;4.10;;
5898;SDS011;2975;50.956;6.962;2022-10-31T15:39:39;9.20;;;3.43;;
5898;SDS011;2975;50.956;6.962;2022-10-31T15:42:13;11.77;;;3.40;;
5898;SDS011;2975;50.956;6.962;2022-10-31T15:45:21;12.53;;;3.60;;
5898;SDS011;2975;50.956;6.962;2022-10-31T15:47:44;9.33;;;3.40;;
5898;SDS011;2975;50.956;6.962;2022-10-31T15:50:18;8.20;;;3.87;;
5898;SDS011;2975;50.956;6.962;2022-10-31T15:52:47;8.97;;;3.20;;
5898;SDS011;2975;50.956;6.962;2022-10-31T15:55:16;8.80;;;2.90;;
5898;SDS011;2975;50.956;6.962;2022-10-31T15:57:48;12.33;;;3.47;;
5898;SDS011;2975;50.956;6.962;2022-10-31T16:00:30;7.87;;;2.93;;
5898;SDS011;2975;50.956;6.962;2022-10-31T16:03:10;8.20;;;3.23;;
5898;SDS011;2975;50.956;6.962;2022-10-31T16:11:40;9.40;;;3.00;;
5898;SDS011;2975;50.956;6.962;2022-10-31T16:13:53;7.63;;;3.20;;
5898;SDS011;2975;50.956;6.962;2022-10-31T16:16:27;7.80;;;3.10;;
5898;SDS011;2975;50.956;6.962;2022-10-31T16:18:55;10.70;;;6.07;;
5898;SDS011;2975;50.956;6.962;2022-10-31T16:21:25;7.07;;;4.10;;
5898;SDS011;2975;50.956;6.962;2022-10-31T16:24:13;13.97;;;3.83;;
5898;SDS011;2975;50.956;6.962;2022-10-31T16:26:47;13.07;;;3.97;;
5898;SDS011;2975;50.956;6.962;2022-10-31T16:31:59;5.83;;;3.20;;
5898;SDS011;2975;50.956;6.962;2022-10-31T16:34:25;10.20;;;3.30;;
5898;SDS011;2975;50.956;6.962;2022-10-31T16:36:51;8.10;;;3.60;;
5898;SDS011;2975;50.956;6.962;2022-10-31T16:39:16;5.40;;;3.03;;
5898;SDS011;2975;50.956;6.962;2022-10-31T16:41:43;8.73;;;3.30;;
5898;SDS011;2975;50.956;6.962;2022-10-31T16:44:15;10.90;;;5.17;;
5898;SDS011;2975;50.956;6.962;2022-10-31T16:46:43;10.40;;;3.40;;
5898;SDS011;2975;50.956;6.962;2022-10-31T16:49:09;9.70;;;3.67;;
5898;SDS011;2975;50.956;6.962;2022-10-31T16:51:35;6.80;;;2.53;;
5898;SDS011;2975;50.956;6.962;2022-10-31T16:54:01;10.80;;;3.60;;
5898;SDS011;2975;50.956;6.962;2022-10-31T16:56:31;7.20;;;3.63;;
5898;SDS011;2975;50.956;6.962;2022-10-31T16:58:58;9.10;;;3.23;;
5898;SDS011;2975;50.956;6.962;2022-10-31T17:01:26;10.30;;;4.13;;
5898;SDS011;2975;50.956;6.962;2022-10-31T17:03:52;8.50;;;3.03;;
5898;SDS011;2975;50.956;6.962;2022-10-31T17:06:18;10.60;;;3.57;;
5898;SDS011;2975;50.956;6.962;2022-10-31T17:08:43;11.60;;;3.40;;
5898;SDS011;2975;50.956;6.962;2022-10-31T17:11:13;11.83;;;3.23;;
5898;SDS011;2975;50.956;6.962;2022-10-31T17:13:43;6.90;;;3.30;;
5898;SDS011;2975;50.956;6.962;2022-10-31T17:16:09;12.53;;;4.03;;
5898;SDS011;2975;50.956;6.962;2022-10-31T17:18:38;8.67;;;3.03;;
5898;SDS011;2975;50.956;6.962;2022-10-31T17:21:04;9.87;;;3.80;;
5898;SDS011;2975;50.956;6.962;2022-10-31T17:23:33;7.20;;;3.60;;
5898;SDS011;2975;50.956;6.962;2022-10-31T17:25:58;10.03;;;3.60;;
5898;SDS011;2975;50.956;6.962;2022-10-31T17:28:24;10.67;;;4.40;;
5898;SDS011;2975;50.956;6.962;2022-10-31T17:30:50;11.43;;;3.90;;
5898;SDS011;2975;50.956;6.962;2022-10-31T17:33:19;10.53;;;2.97;;
5898;SDS011;2975;50.956;6.962;2022-10-31T17:35:45;5.60;;;3.23;;
5898;SDS011;2975;50.956;6.962;2022-10-31T17:38:11;9.77;;;3.47;;
5898;SDS011;2975;50.956;6.962;2022-10-31T17:40:38;10.80;;;3.67;;
5898;SDS011;2975;50.956;6.962;2022-10-31T17:43:06;11.57;;;3.70;;
5898;SDS011;2975;50.956;6.962;2022-10-31T17:45:32;13.80;;;4.00;;
5898;SDS011;2975;50.956;6.962;2022-10-31T17:47:58;8.50;;;3.90;;
5898;SDS011;2975;50.956;6.962;2022-10-31T17:50:24;12.30;;;4.40;;
5898;SDS011;2975;50.956;6.962;2022-10-31T17:52:51;10.20;;;3.67;;